KANW/ANW METAR and TAF weather

Enter ICAO airport designator
Station Type Date Time Source
KANW METAR 2018/07/21 13:15 UTC NOAA

KANW 211315Z AUTO 10005KT 10SM CLR 19/18 A3012 RMK AO2 T01920183


Station Type Date Time Source
KANW Decoded METAR 2018/07/21 13:15 UTC NOAA

Ainsworth Municipal, NE, United States (KANW) 42-35N 100-00W
Jul 21, 2018 - 09:15 AM EDT / 2018.07.21 1315 UTC
Wind: from the E (100 degrees) at 6 MPH (5 KT):0
Visibility: 10 mile(s):0
Sky conditions: clear
Temperature: 66.6 F (19.2 C)
Dew Point: 64.9 F (18.3 C)
Relative Humidity: 94%
Pressure (altimeter): 30.12 in. Hg (1019 hPa)
ob: KANW 211315Z AUTO 10005KT 10SM CLR 19/18 A3012 RMK AO2 T01920183
cycle: 13

Station Type Date Time Source
KANW TAF UTC NOAA

Error!


Example: see airport list